sensor_id;sensor_type;location;lat;lon;timestamp;temperature;humidity
64685;DHT22;51109;47.414;18.954;2022-12-10T00:00:43;7.10;99.90
64685;DHT22;51109;47.414;18.954;2022-12-10T00:03:08;7.10;99.90
64685;DHT22;51109;47.414;18.954;2022-12-10T00:05:35;7.10;99.90
64685;DHT22;51109;47.414;18.954;2022-12-10T00:08:02;7.00;99.90
64685;DHT22;51109;47.414;18.954;2022-12-10T00:10:27;7.10;99.90
64685;DHT22;51109;47.414;18.954;2022-12-10T00:12:53;7.10;99.90
64685;DHT22;51109;47.414;18.954;2022-12-10T00:15:19;7.10;99.90
64685;DHT22;51109;47.414;18.954;2022-12-10T00:17:45;7.20;99.90
64685;DHT22;51109;47.414;18.954;2022-12-10T00:20:11;7.10;99.90
64685;DHT22;51109;47.414;18.954;2022-12-10T00:22:37;7.20;99.90
64685;DHT22;51109;47.414;18.954;2022-12-10T00:25:03;7.20;99.90
64685;DHT22;51109;47.414;18.954;2022-12-10T00:27:30;7.20;99.90
64685;DHT22;51109;47.414;18.954;2022-12-10T00:29:56;7.30;99.90
64685;DHT22;51109;47.414;18.954;2022-12-10T00:32:22;7.20;99.90
64685;DHT22;51109;47.414;18.954;2022-12-10T00:34:48;7.20;99.90
64685;DHT22;51109;47.414;18.954;2022-12-10T00:37:14;7.30;99.90
64685;DHT22;51109;47.414;18.954;2022-12-10T00:39:40;7.30;99.90
64685;DHT22;51109;47.414;18.954;2022-12-10T00:42:05;7.30;99.90
64685;DHT22;51109;47.414;18.954;2022-12-10T00:44:31;7.40;99.90
64685;DHT22;51109;47.414;18.954;2022-12-10T00:46:57;7.30;99.90
64685;DHT22;51109;47.414;18.954;2022-12-10T00:49:23;7.30;99.90
64685;DHT22;51109;47.414;18.954;2022-12-10T00:51:50;7.30;99.90
64685;DHT22;51109;47.414;18.954;2022-12-10T00:54:15;7.30;99.90
64685;DHT22;51109;47.414;18.954;2022-12-10T00:56:42;7.40;99.90
64685;DHT22;51109;47.414;18.954;2022-12-10T00:59:07;7.40;99.90
64685;DHT22;51109;47.414;18.954;2022-12-10T01:01:36;7.40;99.90
64685;DHT22;51109;47.414;18.954;2022-12-10T01:04:11;7.40;99.90
64685;DHT22;51109;47.414;18.954;2022-12-10T01:06:44;7.40;99.90
64685;DHT22;51109;47.414;18.954;2022-12-10T01:09:12;7.40;99.90
64685;DHT22;51109;47.414;18.954;2022-12-10T01:11:40;7.40;99.90
64685;DHT22;51109;47.414;18.954;2022-12-10T01:14:09;7.40;99.90
64685;DHT22;51109;47.414;18.954;2022-12-10T01:16:35;7.30;99.90
64685;DHT22;51109;47.414;18.954;2022-12-10T01:19:01;7.30;99.90
64685;DHT22;51109;47.414;18.954;2022-12-10T01:21:28;7.30;99.90
64685;DHT22;51109;47.414;18.954;2022-12-10T01:23:55;7.30;99.90
64685;DHT22;51109;47.414;18.954;2022-12-10T01:26:23;7.30;99.90
64685;DHT22;51109;47.414;18.954;2022-12-10T01:28:50;7.30;99.90
64685;DHT22;51109;47.414;18.954;2022-12-10T01:31:31;7.40;99.90
64685;DHT22;51109;47.414;18.954;2022-12-10T01:33:58;7.30;99.90
64685;DHT22;51109;47.414;18.954;2022-12-10T01:36:27;7.30;99.90
64685;DHT22;51109;47.414;18.954;2022-12-10T01:38:54;7.30;99.90
64685;DHT22;51109;47.414;18.954;2022-12-10T01:41:26;7.30;99.90
64685;DHT22;51109;47.414;18.954;2022-12-10T01:44:03;7.30;99.90
64685;DHT22;51109;47.414;18.954;2022-12-10T01:46:37;7.30;99.90
64685;DHT22;51109;47.414;18.954;2022-12-10T01:49:05;7.30;99.90
64685;DHT22;51109;47.414;18.954;2022-12-10T01:51:34;7.20;99.90
64685;DHT22;51109;47.414;18.954;2022-12-10T01:54:02;7.30;99.90
64685;DHT22;51109;47.414;18.954;2022-12-10T01:56:29;7.30;99.90
64685;DHT22;51109;47.414;18.954;2022-12-10T01:58:57;7.30;99.90
64685;DHT22;51109;47.414;18.954;2022-12-10T02:09:36;7.20;99.90
64685;DHT22;51109;47.414;18.954;2022-12-10T02:12:40;7.20;99.90
64685;DHT22;51109;47.414;18.954;2022-12-10T02:15:19;7.10;99.90
64685;DHT22;51109;47.414;18.954;2022-12-10T02:17:51;7.10;99.90
64685;DHT22;51109;47.414;18.954;2022-12-10T02:20:41;7.00;99.90
64685;DHT22;51109;47.414;18.954;2022-12-10T02:25:51;7.00;99.90
64685;DHT22;51109;47.414;18.954;2022-12-10T02:30:53;6.80;99.90
64685;DHT22;51109;47.414;18.954;2022-12-10T02:33:20;6.70;99.90
64685;DHT22;51109;47.414;18.954;2022-12-10T02:35:50;6.70;99.90
64685;DHT22;51109;47.414;18.954;2022-12-10T02:38:25;6.70;99.90
64685;DHT22;51109;47.414;18.954;2022-12-10T02:40:56;6.60;99.90
64685;DHT22;51109;47.414;18.954;2022-12-10T02:43:23;6.60;99.90
64685;DHT22;51109;47.414;18.954;2022-12-10T02:45:51;6.60;99.90
64685;DHT22;51109;47.414;18.954;2022-12-10T02:48:18;6.60;99.90
64685;DHT22;51109;47.414;18.954;2022-12-10T02:50:44;6.60;99.90
64685;DHT22;51109;47.414;18.954;2022-12-10T02:53:10;6.50;99.90
64685;DHT22;51109;47.414;18.954;2022-12-10T02:56:08;6.50;99.90
64685;DHT22;51109;47.414;18.954;2022-12-10T03:04:21;6.40;99.90
64685;DHT22;51109;47.414;18.954;2022-12-10T03:06:58;6.40;99.90
64685;DHT22;51109;47.414;18.954;2022-12-10T03:09:38;6.40;99.90
64685;DHT22;51109;47.414;18.954;2022-12-10T03:12:27;6.40;99.90
64685;DHT22;51109;47.414;18.954;2022-12-10T03:14:58;6.40;99.90
64685;DHT22;51109;47.414;18.954;2022-12-10T03:17:27;6.40;99.90
64685;DHT22;51109;47.414;18.954;2022-12-10T03:19:55;6.40;99.90
64685;DHT22;51109;47.414;18.954;2022-12-10T03:22:22;6.40;99.90
64685;DHT22;51109;47.414;18.954;2022-12-10T03:24:48;6.30;99.90
64685;DHT22;51109;47.414;18.954;2022-12-10T03:27:15;6.40;99.90
64685;DHT22;51109;47.414;18.954;2022-12-10T03:29:47;6.30;99.90
64685;DHT22;51109;47.414;18.954;2022-12-10T03:32:15;6.30;99.90
64685;DHT22;51109;47.414;18.954;2022-12-10T03:34:43;6.30;99.90
64685;DHT22;51109;47.414;18.954;2022-12-10T03:37:11;6.20;99.90
64685;DHT22;51109;47.414;18.954;2022-12-10T03:39:38;6.20;99.90
64685;DHT22;51109;47.414;18.954;2022-12-10T03:42:05;6.20;99.90
64685;DHT22;51109;47.414;18.954;2022-12-10T03:44:33;6.20;99.90
64685;DHT22;51109;47.414;18.954;2022-12-10T03:47:00;6.20;99.90
64685;DHT22;51109;47.414;18.954;2022-12-10T03:49:26;6.10;99.90
64685;DHT22;51109;47.414;18.954;2022-12-10T03:51:52;6.10;99.90
64685;DHT22;51109;47.414;18.954;2022-12-10T03:54:21;6.00;99.90
64685;DHT22;51109;47.414;18.954;2022-12-10T03:56:48;6.00;99.90
64685;DHT22;51109;47.414;18.954;2022-12-10T03:59:15;6.00;99.90
64685;DHT22;51109;47.414;18.954;2022-12-10T04:01:41;6.00;99.90
64685;DHT22;51109;47.414;18.954;2022-12-10T04:04:07;6.00;99.90
64685;DHT22;51109;47.414;18.954;2022-12-10T04:06:34;6.00;99.90
64685;DHT22;51109;47.414;18.954;2022-12-10T04:09:00;6.00;99.90
64685;DHT22;51109;47.414;18.954;2022-12-10T04:11:26;6.00;99.90
64685;DHT22;51109;47.414;18.954;2022-12-10T04:13:52;6.00;99.90
64685;DHT22;51109;47.414;18.954;2022-12-10T04:16:36;6.00;99.90
64685;DHT22;51109;47.414;18.954;2022-12-10T04:19:05;6.00;99.90
64685;DHT22;51109;47.414;18.954;2022-12-10T04:21:33;6.00;99.90
64685;DHT22;51109;47.414;18.954;2022-12-10T04:24:21;5.90;99.90
64685;DHT22;51109;47.414;18.954;2022-12-10T04:27:12;5.90;99.90
64685;DHT22;51109;47.414;18.954;2022-12-10T04:29:39;5.90;99.90
64685;DHT22;51109;47.414;18.954;2022-12-10T04:32:05;5.90;99.90
64685;DHT22;51109;47.414;18.954;2022-12-10T04:34:31;5.90;99.90
64685;DHT22;51109;47.414;18.954;2022-12-10T04:36:58;5.80;99.90
64685;DHT22;51109;47.414;18.954;2022-12-10T04:39:25;5.80;99.90
64685;DHT22;51109;47.414;18.954;2022-12-10T04:41:51;5.80;99.90
64685;DHT22;51109;47.414;18.954;2022-12-10T04:44:17;5.80;99.90
64685;DHT22;51109;47.414;18.954;2022-12-10T04:46:44;5.80;99.90
64685;DHT22;51109;47.414;18.954;2022-12-10T04:49:10;5.70;99.90
64685;DHT22;51109;47.414;18.954;2022-12-10T04:51:36;5.70;99.90
64685;DHT22;51109;47.414;18.954;2022-12-10T04:54:02;5.70;99.90
64685;DHT22;51109;47.414;18.954;2022-12-10T04:56:29;5.70;99.90
64685;DHT22;51109;47.414;18.954;2022-12-10T04:58:56;5.70;99.90
64685;DHT22;51109;47.414;18.954;2022-12-10T05:01:23;5.70;99.90
64685;DHT22;51109;47.414;18.954;2022-12-10T05:03:49;5.60;99.90
64685;DHT22;51109;47.414;18.954;2022-12-10T05:06:16;5.60;99.90
64685;DHT22;51109;47.414;18.954;2022-12-10T05:08:43;5.60;99.90
64685;DHT22;51109;47.414;18.954;2022-12-10T05:11:11;5.60;99.90
64685;DHT22;51109;47.414;18.954;2022-12-10T05:13:38;5.60;99.90
64685;DHT22;51109;47.414;18.954;2022-12-10T05:16:06;5.60;99.90
64685;DHT22;51109;47.414;18.954;2022-12-10T05:18:33;5.60;99.90
64685;DHT22;51109;47.414;18.954;2022-12-10T05:21:04;5.60;99.90
64685;DHT22;51109;47.414;18.954;2022-12-10T05:23:31;5.60;99.90
64685;DHT22;51109;47.414;18.954;2022-12-10T05:26:06;5.60;99.90
64685;DHT22;51109;47.414;18.954;2022-12-10T05:28:38;5.60;99.90
64685;DHT22;51109;47.414;18.954;2022-12-10T05:31:05;5.60;99.90
64685;DHT22;51109;47.414;18.954;2022-12-10T05:33:32;5.60;99.90
64685;DHT22;51109;47.414;18.954;2022-12-10T05:36:00;5.60;99.90
64685;DHT22;51109;47.414;18.954;2022-12-10T05:38:28;5.50;99.90
64685;DHT22;51109;47.414;18.954;2022-12-10T05:40:54;5.50;99.90
64685;DHT22;51109;47.414;18.954;2022-12-10T05:43:20;5.50;99.90
64685;DHT22;51109;47.414;18.954;2022-12-10T05:45:46;5.40;99.90
64685;DHT22;51109;47.414;18.954;2022-12-10T05:48:14;5.40;99.90
64685;DHT22;51109;47.414;18.954;2022-12-10T05:50:41;5.50;99.90
64685;DHT22;51109;47.414;18.954;2022-12-10T05:53:07;5.40;99.90
64685;DHT22;51109;47.414;18.954;2022-12-10T05:55:33;5.40;99.90
64685;DHT22;51109;47.414;18.954;2022-12-10T05:57:59;5.40;99.90
64685;DHT22;51109;47.414;18.954;2022-12-10T06:00:27;5.40;99.90
64685;DHT22;51109;47.414;18.954;2022-12-10T06:02:53;5.40;99.90
64685;DHT22;51109;47.414;18.954;2022-12-10T06:05:19;5.40;99.90
64685;DHT22;51109;47.414;18.954;2022-12-10T06:07:45;5.40;99.90
64685;DHT22;51109;47.414;18.954;2022-12-10T06:10:12;5.50;99.90
64685;DHT22;51109;47.414;18.954;2022-12-10T06:12:38;5.40;99.90
64685;DHT22;51109;47.414;18.954;2022-12-10T06:15:05;5.40;99.90
64685;DHT22;51109;47.414;18.954;2022-12-10T06:17:31;5.30;99.90
64685;DHT22;51109;47.414;18.954;2022-12-10T06:19:58;5.30;99.90
64685;DHT22;51109;47.414;18.954;2022-12-10T06:22:24;5.30;99.90
64685;DHT22;51109;47.414;18.954;2022-12-10T06:24:50;5.30;99.90
64685;DHT22;51109;47.414;18.954;2022-12-10T06:27:16;5.30;99.90
64685;DHT22;51109;47.414;18.954;2022-12-10T06:29:41;5.20;99.90
64685;DHT22;51109;47.414;18.954;2022-12-10T06:32:07;5.20;99.90
64685;DHT22;51109;47.414;18.954;2022-12-10T06:34:33;5.20;99.90
64685;DHT22;51109;47.414;18.954;2022-12-10T06:36:59;5.20;99.90
64685;DHT22;51109;47.414;18.954;2022-12-10T06:39:25;5.20;99.90
64685;DHT22;51109;47.414;18.954;2022-12-10T06:41:51;5.10;99.90
64685;DHT22;51109;47.414;18.954;2022-12-10T06:44:16;5.10;99.90
64685;DHT22;51109;47.414;18.954;2022-12-10T06:46:42;5.10;99.90
64685;DHT22;51109;47.414;18.954;2022-12-10T06:49:08;5.00;99.90
64685;DHT22;51109;47.414;18.954;2022-12-10T06:51:34;5.10;99.90
64685;DHT22;51109;47.414;18.954;2022-12-10T06:54:00;5.10;99.90
64685;DHT22;51109;47.414;18.954;2022-12-10T06:56:26;5.00;99.90
64685;DHT22;51109;47.414;18.954;2022-12-10T06:58:53;5.00;99.90
64685;DHT22;51109;47.414;18.954;2022-12-10T07:01:22;5.00;99.90
64685;DHT22;51109;47.414;18.954;2022-12-10T07:03:52;5.00;99.90
64685;DHT22;51109;47.414;18.954;2022-12-10T07:06:19;4.90;99.90
64685;DHT22;51109;47.414;18.954;2022-12-10T07:08:46;4.90;99.90
64685;DHT22;51109;47.414;18.954;2022-12-10T07:11:14;4.90;99.90
64685;DHT22;51109;47.414;18.954;2022-12-10T07:13:40;4.90;99.90
64685;DHT22;51109;47.414;18.954;2022-12-10T07:18:44;4.80;99.90
64685;DHT22;51109;47.414;18.954;2022-12-10T07:21:14;4.80;99.90
64685;DHT22;51109;47.414;18.954;2022-12-10T07:23:40;4.80;99.90
64685;DHT22;51109;47.414;18.954;2022-12-10T07:26:06;4.80;99.90
64685;DHT22;51109;47.414;18.954;2022-12-10T07:28:33;4.70;99.90
64685;DHT22;51109;47.414;18.954;2022-12-10T07:31:03;4.70;99.90
64685;DHT22;51109;47.414;18.954;2022-12-10T07:33:29;4.70;99.90
64685;DHT22;51109;47.414;18.954;2022-12-10T07:35:55;4.70;99.90
64685;DHT22;51109;47.414;18.954;2022-12-10T07:38:23;4.70;99.90
64685;DHT22;51109;47.414;18.954;2022-12-10T07:40:49;4.70;99.90
64685;DHT22;51109;47.414;18.954;2022-12-10T07:43:15;4.70;99.90
64685;DHT22;51109;47.414;18.954;2022-12-10T07:45:41;4.70;99.90
64685;DHT22;51109;47.414;18.954;2022-12-10T07:48:07;4.70;99.90
64685;DHT22;51109;47.414;18.954;2022-12-10T07:50:33;4.70;99.90
64685;DHT22;51109;47.414;18.954;2022-12-10T07:52:59;4.70;99.90
64685;DHT22;51109;47.414;18.954;2022-12-10T07:55:25;4.70;99.90
64685;DHT22;51109;47.414;18.954;2022-12-10T07:57:51;4.70;99.90
64685;DHT22;51109;47.414;18.954;2022-12-10T08:00:17;4.70;99.90
64685;DHT22;51109;47.414;18.954;2022-12-10T08:02:43;4.60;99.90
64685;DHT22;51109;47.414;18.954;2022-12-10T08:05:09;4.60;99.90
64685;DHT22;51109;47.414;18.954;2022-12-10T08:07:35;4.60;99.90
64685;DHT22;51109;47.414;18.954;2022-12-10T08:10:02;4.60;99.90
64685;DHT22;51109;47.414;18.954;2022-12-10T08:12:28;4.50;99.90
64685;DHT22;51109;47.414;18.954;2022-12-10T08:14:54;4.50;99.90
64685;DHT22;51109;47.414;18.954;2022-12-10T08:17:20;4.50;99.90
64685;DHT22;51109;47.414;18.954;2022-12-10T08:19:46;4.50;99.90
64685;DHT22;51109;47.414;18.954;2022-12-10T08:22:12;4.50;99.90
64685;DHT22;51109;47.414;18.954;2022-12-10T08:24:37;4.40;99.90
64685;DHT22;51109;47.414;18.954;2022-12-10T08:27:03;4.40;99.90
64685;DHT22;51109;47.414;18.954;2022-12-10T08:29:29;4.40;99.90
64685;DHT22;51109;47.414;18.954;2022-12-10T08:31:55;4.40;99.90
64685;DHT22;51109;47.414;18.954;2022-12-10T08:34:21;4.40;99.90
64685;DHT22;51109;47.414;18.954;2022-12-10T08:36:47;4.50;99.90
64685;DHT22;51109;47.414;18.954;2022-12-10T08:39:13;4.50;99.90
64685;DHT22;51109;47.414;18.954;2022-12-10T08:41:43;4.60;99.90
64685;DHT22;51109;47.414;18.954;2022-12-10T08:44:10;4.60;99.90
64685;DHT22;51109;47.414;18.954;2022-12-10T08:46:36;4.60;99.90
64685;DHT22;51109;47.414;18.954;2022-12-10T08:49:03;4.60;99.90
64685;DHT22;51109;47.414;18.954;2022-12-10T08:51:30;4.60;99.90
64685;DHT22;51109;47.414;18.954;2022-12-10T08:53:56;4.50;99.90
64685;DHT22;51109;47.414;18.954;2022-12-10T08:56:22;4.60;99.90
64685;DHT22;51109;47.414;18.954;2022-12-10T08:58:47;4.70;99.90
64685;DHT22;51109;47.414;18.954;2022-12-10T09:01:16;4.80;99.90
64685;DHT22;51109;47.414;18.954;2022-12-10T09:03:42;4.80;99.90
64685;DHT22;51109;47.414;18.954;2022-12-10T09:06:10;4.70;99.90
64685;DHT22;51109;47.414;18.954;2022-12-10T09:08:37;4.70;99.90
64685;DHT22;51109;47.414;18.954;2022-12-10T09:11:08;4.70;99.90
64685;DHT22;51109;47.414;18.954;2022-12-10T09:13:35;4.60;99.90
64685;DHT22;51109;47.414;18.954;2022-12-10T09:16:01;4.70;99.90
64685;DHT22;51109;47.414;18.954;2022-12-10T09:18:27;4.70;99.90
64685;DHT22;51109;47.414;18.954;2022-12-10T09:20:53;4.60;99.90
64685;DHT22;51109;47.414;18.954;2022-12-10T09:23:19;4.60;99.90
64685;DHT22;51109;47.414;18.954;2022-12-10T09:25:45;4.60;99.90
64685;DHT22;51109;47.414;18.954;2022-12-10T09:28:11;4.50;99.90
64685;DHT22;51109;47.414;18.954;2022-12-10T09:30:37;4.50;99.90
64685;DHT22;51109;47.414;18.954;2022-12-10T09:33:03;4.40;99.90
64685;DHT22;51109;47.414;18.954;2022-12-10T09:35:29;4.50;99.90
64685;DHT22;51109;47.414;18.954;2022-12-10T09:37:55;4.50;99.90
64685;DHT22;51109;47.414;18.954;2022-12-10T09:40:48;4.50;99.90
64685;DHT22;51109;47.414;18.954;2022-12-10T09:43:40;4.50;99.90
64685;DHT22;51109;47.414;18.954;2022-12-10T09:46:26;4.60;99.90
64685;DHT22;51109;47.414;18.954;2022-12-10T09:51:41;4.40;99.90
64685;DHT22;51109;47.414;18.954;2022-12-10T09:54:26;4.60;99.90
64685;DHT22;51109;47.414;18.954;2022-12-10T09:56:55;4.50;99.90
64685;DHT22;51109;47.414;18.954;2022-12-10T09:59:32;4.50;99.90
64685;DHT22;51109;47.414;18.954;2022-12-10T10:02:16;4.60;99.90
64685;DHT22;51109;47.414;18.954;2022-12-10T10:04:44;4.70;99.90
64685;DHT22;51109;47.414;18.954;2022-12-10T10:07:19;4.70;99.90
64685;DHT22;51109;47.414;18.954;2022-12-10T10:09:45;4.80;99.90
64685;DHT22;51109;47.414;18.954;2022-12-10T10:12:15;4.70;99.90
64685;DHT22;51109;47.414;18.954;2022-12-10T10:14:43;4.60;99.90
64685;DHT22;51109;47.414;18.954;2022-12-10T10:17:36;4.60;99.90
64685;DHT22;51109;47.414;18.954;2022-12-10T10:20:02;4.50;99.90
64685;DHT22;51109;47.414;18.954;2022-12-10T10:22:28;4.60;99.90
64685;DHT22;51109;47.414;18.954;2022-12-10T10:24:55;4.60;99.90
64685;DHT22;51109;47.414;18.954;2022-12-10T10:27:24;4.60;99.90
64685;DHT22;51109;47.414;18.954;2022-12-10T10:29:54;4.50;99.90
64685;DHT22;51109;47.414;18.954;2022-12-10T10:32:44;4.60;99.90
64685;DHT22;51109;47.414;18.954;2022-12-10T10:35:22;4.50;99.90
64685;DHT22;51109;47.414;18.954;2022-12-10T10:37:48;4.50;99.90
64685;DHT22;51109;47.414;18.954;2022-12-10T10:40:28;4.60;99.90
64685;DHT22;51109;47.414;18.954;2022-12-10T10:42:56;4.60;99.90
64685;DHT22;51109;47.414;18.954;2022-12-10T10:45:41;4.60;99.90
64685;DHT22;51109;47.414;18.954;2022-12-10T10:48:18;4.50;99.90
64685;DHT22;51109;47.414;18.954;2022-12-10T10:50:53;4.60;99.90
64685;DHT22;51109;47.414;18.954;2022-12-10T10:53:29;4.60;99.90
64685;DHT22;51109;47.414;18.954;2022-12-10T10:56:40;4.50;99.90
64685;DHT22;51109;47.414;18.954;2022-12-10T11:01:54;4.40;99.90
64685;DHT22;51109;47.414;18.954;2022-12-10T11:07:02;4.50;99.90
64685;DHT22;51109;47.414;18.954;2022-12-10T11:09:31;4.40;99.90
64685;DHT22;51109;47.414;18.954;2022-12-10T11:12:04;4.50;99.90
64685;DHT22;51109;47.414;18.954;2022-12-10T11:14:43;4.50;99.90
64685;DHT22;51109;47.414;18.954;2022-12-10T11:19:42;4.50;99.90
64685;DHT22;51109;47.414;18.954;2022-12-10T11:22:20;4.50;99.90
64685;DHT22;51109;47.414;18.954;2022-12-10T11:24:47;4.50;99.90
64685;DHT22;51109;47.414;18.954;2022-12-10T11:27:46;4.50;99.90
64685;DHT22;51109;47.414;18.954;2022-12-10T11:30:18;4.50;99.90
64685;DHT22;51109;47.414;18.954;2022-12-10T11:33:15;4.50;99.90
64685;DHT22;51109;47.414;18.954;2022-12-10T11:40:49;4.50;99.90
64685;DHT22;51109;47.414;18.954;2022-12-10T11:56:52;4.50;99.90
64685;DHT22;51109;47.414;18.954;2022-12-10T12:00:02;4.50;99.90
64685;DHT22;51109;47.414;18.954;2022-12-10T12:16:35;4.70;99.90
64685;DHT22;51109;47.414;18.954;2022-12-10T12:19:18;4.70;99.90
64685;DHT22;51109;47.414;18.954;2022-12-10T12:21:47;4.70;99.90
64685;DHT22;51109;47.414;18.954;2022-12-10T12:24:25;4.70;99.90
64685;DHT22;51109;47.414;18.954;2022-12-10T12:26:58;4.70;99.90
64685;DHT22;51109;47.414;18.954;2022-12-10T12:32:07;4.30;99.90
64685;DHT22;51109;47.414;18.954;2022-12-10T12:34:49;4.60;99.90
64685;DHT22;51109;47.414;18.954;2022-12-10T12:37:18;4.60;99.90
64685;DHT22;51109;47.414;18.954;2022-12-10T12:40:10;4.60;99.90
64685;DHT22;51109;47.414;18.954;2022-12-10T12:42:39;4.60;99.90
64685;DHT22;51109;47.414;18.954;2022-12-10T12:45:16;4.60;99.90
64685;DHT22;51109;47.414;18.954;2022-12-10T12:53:02;4.50;99.90
64685;DHT22;51109;47.414;18.954;2022-12-10T12:58:59;4.40;99.90
64685;DHT22;51109;47.414;18.954;2022-12-10T13:03:57;4.50;99.90
64685;DHT22;51109;47.414;18.954;2022-12-10T13:06:32;4.50;99.90
64685;DHT22;51109;47.414;18.954;2022-12-10T13:11:37;4.40;99.90
64685;DHT22;51109;47.414;18.954;2022-12-10T13:42:43;4.20;99.90
64685;DHT22;51109;47.414;18.954;2022-12-10T13:45:32;4.10;99.90
64685;DHT22;51109;47.414;18.954;2022-12-10T13:48:25;4.10;99.90
64685;DHT22;51109;47.414;18.954;2022-12-10T13:53:54;4.10;99.90
64685;DHT22;51109;47.414;18.954;2022-12-10T13:56:30;4.00;99.90
64685;DHT22;51109;47.414;18.954;2022-12-10T14:06:53;4.00;99.90
64685;DHT22;51109;47.414;18.954;2022-12-10T14:09:26;4.00;99.90
64685;DHT22;51109;47.414;18.954;2022-12-10T14:14:41;4.00;99.90
64685;DHT22;51109;47.414;18.954;2022-12-10T14:17:14;4.00;99.90
64685;DHT22;51109;47.414;18.954;2022-12-10T14:19:46;4.00;99.90
64685;DHT22;51109;47.414;18.954;2022-12-10T14:22:22;4.00;99.90
64685;DHT22;51109;47.414;18.954;2022-12-10T14:24:50;4.00;99.90
64685;DHT22;51109;47.414;18.954;2022-12-10T14:27:19;3.90;99.90
64685;DHT22;51109;47.414;18.954;2022-12-10T14:29:50;3.60;99.90
64685;DHT22;51109;47.414;18.954;2022-12-10T14:32:25;3.90;99.90
64685;DHT22;51109;47.414;18.954;2022-12-10T14:34:56;3.90;99.90
64685;DHT22;51109;47.414;18.954;2022-12-10T14:37:28;3.90;99.90
64685;DHT22;51109;47.414;18.954;2022-12-10T14:39:55;3.90;99.90
64685;DHT22;51109;47.414;18.954;2022-12-10T14:42:22;3.90;99.90
64685;DHT22;51109;47.414;18.954;2022-12-10T14:44:58;3.90;99.90
64685;DHT22;51109;47.414;18.954;2022-12-10T14:47:24;3.90;99.90
64685;DHT22;51109;47.414;18.954;2022-12-10T14:49:52;3.90;99.90
64685;DHT22;51109;47.414;18.954;2022-12-10T14:52:31;3.90;99.90
64685;DHT22;51109;47.414;18.954;2022-12-10T14:54:58;3.90;99.90
64685;DHT22;51109;47.414;18.954;2022-12-10T14:57:30;3.90;99.90
64685;DHT22;51109;47.414;18.954;2022-12-10T15:00:06;3.90;99.90
64685;DHT22;51109;47.414;18.954;2022-12-10T15:02:36;3.90;99.90
64685;DHT22;51109;47.414;18.954;2022-12-10T15:05:09;3.90;99.90
64685;DHT22;51109;47.414;18.954;2022-12-10T15:07:35;3.90;99.90
64685;DHT22;51109;47.414;18.954;2022-12-10T15:10:07;3.90;99.90
64685;DHT22;51109;47.414;18.954;2022-12-10T15:12:49;3.90;99.90
64685;DHT22;51109;47.414;18.954;2022-12-10T15:15:26;3.90;99.90
64685;DHT22;51109;47.414;18.954;2022-12-10T15:28:30;3.80;99.90
64685;DHT22;51109;47.414;18.954;2022-12-10T15:33:48;3.90;99.90
64685;DHT22;51109;47.414;18.954;2022-12-10T15:36:39;3.90;99.90
64685;DHT22;51109;47.414;18.954;2022-12-10T15:44:45;3.90;99.90
64685;DHT22;51109;47.414;18.954;2022-12-10T15:47:18;3.90;99.90
64685;DHT22;51109;47.414;18.954;2022-12-10T15:49:45;3.90;99.90
64685;DHT22;51109;47.414;18.954;2022-12-10T15:52:20;3.90;99.90
64685;DHT22;51109;47.414;18.954;2022-12-10T15:54:48;3.90;99.90
64685;DHT22;51109;47.414;18.954;2022-12-10T15:57:18;3.90;99.90
64685;DHT22;51109;47.414;18.954;2022-12-10T15:59:47;3.90;99.90
64685;DHT22;51109;47.414;18.954;2022-12-10T16:04:58;3.90;99.90
64685;DHT22;51109;47.414;18.954;2022-12-10T16:07:24;3.90;99.90
64685;DHT22;51109;47.414;18.954;2022-12-10T16:09:50;3.90;99.90
64685;DHT22;51109;47.414;18.954;2022-12-10T16:12:17;4.00;99.90
64685;DHT22;51109;47.414;18.954;2022-12-10T16:14:54;4.00;99.90
64685;DHT22;51109;47.414;18.954;2022-12-10T16:17:26;3.90;99.90
64685;DHT22;51109;47.414;18.954;2022-12-10T16:20:00;4.00;99.90
64685;DHT22;51109;47.414;18.954;2022-12-10T16:22:35;4.00;99.90
64685;DHT22;51109;47.414;18.954;2022-12-10T16:25:01;4.00;99.90
64685;DHT22;51109;47.414;18.954;2022-12-10T16:27:30;3.90;99.90
64685;DHT22;51109;47.414;18.954;2022-12-10T16:29:58;3.90;99.90
64685;DHT22;51109;47.414;18.954;2022-12-10T16:32:26;3.90;99.90
64685;DHT22;51109;47.414;18.954;2022-12-10T16:34:52;4.00;99.90
64685;DHT22;51109;47.414;18.954;2022-12-10T16:37:19;4.00;99.90
64685;DHT22;51109;47.414;18.954;2022-12-10T16:39:46;4.00;99.90
64685;DHT22;51109;47.414;18.954;2022-12-10T16:42:12;4.00;99.90
64685;DHT22;51109;47.414;18.954;2022-12-10T16:44:38;4.00;99.90
64685;DHT22;51109;47.414;18.954;2022-12-10T16:47:11;4.00;99.90
64685;DHT22;51109;47.414;18.954;2022-12-10T16:49:38;4.00;99.90
64685;DHT22;51109;47.414;18.954;2022-12-10T16:52:05;4.00;99.90
64685;DHT22;51109;47.414;18.954;2022-12-10T16:54:31;4.00;99.90
64685;DHT22;51109;47.414;18.954;2022-12-10T16:56:57;4.00;99.90
64685;DHT22;51109;47.414;18.954;2022-12-10T16:59:26;4.00;99.90
64685;DHT22;51109;47.414;18.954;2022-12-10T17:01:52;4.00;99.90
64685;DHT22;51109;47.414;18.954;2022-12-10T17:04:18;4.00;99.90
64685;DHT22;51109;47.414;18.954;2022-12-10T17:06:45;4.00;99.90
64685;DHT22;51109;47.414;18.954;2022-12-10T17:09:11;4.00;99.90
64685;DHT22;51109;47.414;18.954;2022-12-10T17:11:41;4.00;99.90
64685;DHT22;51109;47.414;18.954;2022-12-10T17:14:23;4.00;99.90
64685;DHT22;51109;47.414;18.954;2022-12-10T17:16:50;4.10;99.90
64685;DHT22;51109;47.414;18.954;2022-12-10T17:19:16;4.10;99.90
64685;DHT22;51109;47.414;18.954;2022-12-10T17:21:43;4.10;99.90
64685;DHT22;51109;47.414;18.954;2022-12-10T17:24:09;4.10;99.90
64685;DHT22;51109;47.414;18.954;2022-12-10T17:26:38;4.10;99.90
64685;DHT22;51109;47.414;18.954;2022-12-10T17:29:11;4.10;99.90
64685;DHT22;51109;47.414;18.954;2022-12-10T17:31:38;4.10;99.90
64685;DHT22;51109;47.414;18.954;2022-12-10T17:34:05;4.10;99.90
64685;DHT22;51109;47.414;18.954;2022-12-10T17:36:32;4.10;99.90
64685;DHT22;51109;47.414;18.954;2022-12-10T17:38:58;4.10;99.90
64685;DHT22;51109;47.414;18.954;2022-12-10T17:41:24;4.10;99.90
64685;DHT22;51109;47.414;18.954;2022-12-10T17:43:50;4.10;99.90
64685;DHT22;51109;47.414;18.954;2022-12-10T17:46:21;4.10;99.90
64685;DHT22;51109;47.414;18.954;2022-12-10T17:48:48;4.10;99.90
64685;DHT22;51109;47.414;18.954;2022-12-10T17:51:14;4.10;99.90
64685;DHT22;51109;47.414;18.954;2022-12-10T17:53:40;4.10;99.90
64685;DHT22;51109;47.414;18.954;2022-12-10T17:56:34;4.10;99.90
64685;DHT22;51109;47.414;18.954;2022-12-10T17:59:00;4.10;99.90
64685;DHT22;51109;47.414;18.954;2022-12-10T18:01:26;4.10;99.90
64685;DHT22;51109;47.414;18.954;2022-12-10T18:03:53;4.10;99.90
64685;DHT22;51109;47.414;18.954;2022-12-10T18:06:28;4.10;99.90
64685;DHT22;51109;47.414;18.954;2022-12-10T18:08:55;4.10;99.90
64685;DHT22;51109;47.414;18.954;2022-12-10T18:11:33;4.20;99.90